Athboy, South Dakota
Current Conditions -  °F | °C
As of 2:53 PM on Friday 31 Oct 2014 (Local Time) from KHEI Reporting Station
Clear Clear  
Wind Chill: 35°   Ceiling: Unl
Heat Index: 44°   Visibility: 10mi
Dew Point: 16°   Wind: 26mph
Humidity: 32%   Direction: 140°SE
Pressure: 30.1"   Gusts: 39mph
Location:  45.2919°N, 102.298°W
Report Text: KHEI 312053Z AUTO 14023G34KT 10SM CLR 07/M09 A3010 RMK AO2 PK WND 15034/2048 SLP214 T00671089 56049
Loading
Personal Weather Stations






























Interactive Weather Map New forecast layout! Learn more

10-Day Weather Forecast

Advertisements
Track Severe Weather on mobile